sensor_id;sensor_type;location;lat;lon;timestamp;pressure;altitude;pressure_sealevel;temperature;humidity
61524;BME280;47393;38.758;-9.164;2022-10-30T00:01:40;100738.66;;;15.89;100.00
61524;BME280;47393;38.758;-9.164;2022-10-30T00:03:41;100740.69;;;15.78;100.00
61524;BME280;47393;38.758;-9.164;2022-10-30T00:05:42;100735.03;;;15.63;100.00
61524;BME280;47393;38.758;-9.164;2022-10-30T00:07:43;100727.38;;;15.60;100.00
61524;BME280;47393;38.758;-9.164;2022-10-30T00:09:48;100727.31;;;15.69;100.00
61524;BME280;47393;38.758;-9.164;2022-10-30T00:12:23;100723.53;;;15.72;100.00
61524;BME280;47393;38.758;-9.164;2022-10-30T00:20:34;100709.28;;;15.73;100.00
61524;BME280;47393;38.758;-9.164;2022-10-30T00:22:56;100709.56;;;15.70;100.00
61524;BME280;47393;38.758;-9.164;2022-10-30T00:27:15;100716.47;;;15.63;100.00
61524;BME280;47393;38.758;-9.164;2022-10-30T00:29:19;100713.81;;;15.63;100.00
61524;BME280;47393;38.758;-9.164;2022-10-30T00:31:26;100721.25;;;15.59;100.00
61524;BME280;47393;38.758;-9.164;2022-10-30T00:33:28;100711.47;;;15.60;100.00
61524;BME280;47393;38.758;-9.164;2022-10-30T00:35:29;100707.53;;;15.64;100.00
61524;BME280;47393;38.758;-9.164;2022-10-30T00:37:30;100709.06;;;15.66;100.00
61524;BME280;47393;38.758;-9.164;2022-10-30T00:39:34;100714.22;;;15.68;100.00
61524;BME280;47393;38.758;-9.164;2022-10-30T00:41:44;100711.47;;;15.60;100.00
61524;BME280;47393;38.758;-9.164;2022-10-30T00:43:47;100701.00;;;15.58;100.00
61524;BME280;47393;38.758;-9.164;2022-10-30T00:46:11;100690.88;;;15.53;100.00
61524;BME280;47393;38.758;-9.164;2022-10-30T00:48:17;100682.22;;;15.51;100.00
61524;BME280;47393;38.758;-9.164;2022-10-30T00:50:24;100674.03;;;15.63;100.00
61524;BME280;47393;38.758;-9.164;2022-10-30T00:52:26;100677.16;;;15.58;100.00
61524;BME280;47393;38.758;-9.164;2022-10-30T00:54:28;100690.72;;;15.55;100.00
61524;BME280;47393;38.758;-9.164;2022-10-30T00:56:29;100697.75;;;15.46;100.00
61524;BME280;47393;38.758;-9.164;2022-10-30T00:58:31;100699.03;;;15.42;100.00
61524;BME280;47393;38.758;-9.164;2022-10-30T01:00:33;100698.47;;;15.38;100.00
61524;BME280;47393;38.758;-9.164;2022-10-30T01:02:38;100705.75;;;15.36;100.00
61524;BME280;47393;38.758;-9.164;2022-10-30T01:04:44;100711.34;;;15.33;100.00
61524;BME280;47393;38.758;-9.164;2022-10-30T01:06:47;100724.28;;;15.36;100.00
61524;BME280;47393;38.758;-9.164;2022-10-30T01:08:58;100726.13;;;15.36;100.00
61524;BME280;47393;38.758;-9.164;2022-10-30T01:11:09;100726.81;;;15.38;100.00
61524;BME280;47393;38.758;-9.164;2022-10-30T01:13:34;100725.38;;;15.44;100.00
61524;BME280;47393;38.758;-9.164;2022-10-30T01:15:37;100727.28;;;15.51;100.00
61524;BME280;47393;38.758;-9.164;2022-10-30T01:20:08;100735.22;;;15.51;100.00
61524;BME280;47393;38.758;-9.164;2022-10-30T01:22:48;100736.50;;;15.47;100.00
61524;BME280;47393;38.758;-9.164;2022-10-30T01:36:29;100709.56;;;15.52;100.00
61524;BME280;47393;38.758;-9.164;2022-10-30T01:38:55;100733.22;;;15.63;100.00
61524;BME280;47393;38.758;-9.164;2022-10-30T01:40:56;100729.41;;;15.66;100.00
61524;BME280;47393;38.758;-9.164;2022-10-30T01:42:57;100720.88;;;15.72;100.00
61524;BME280;47393;38.758;-9.164;2022-10-30T01:45:07;100725.34;;;15.71;100.00
61524;BME280;47393;38.758;-9.164;2022-10-30T01:47:19;100727.69;;;15.74;100.00
61524;BME280;47393;38.758;-9.164;2022-10-30T02:00:27;100722.84;;;15.70;100.00
61524;BME280;47393;38.758;-9.164;2022-10-30T02:02:28;100715.59;;;15.72;100.00
61524;BME280;47393;38.758;-9.164;2022-10-30T02:04:29;100710.38;;;15.80;100.00
61524;BME280;47393;38.758;-9.164;2022-10-30T02:06:30;100719.28;;;15.89;100.00
61524;BME280;47393;38.758;-9.164;2022-10-30T02:08:31;100718.81;;;15.94;100.00
61524;BME280;47393;38.758;-9.164;2022-10-30T02:10:32;100711.81;;;15.93;100.00
61524;BME280;47393;38.758;-9.164;2022-10-30T02:12:37;100711.44;;;15.87;100.00
61524;BME280;47393;38.758;-9.164;2022-10-30T02:14:40;100713.56;;;15.84;100.00
61524;BME280;47393;38.758;-9.164;2022-10-30T02:17:03;100713.19;;;15.79;100.00
61524;BME280;47393;38.758;-9.164;2022-10-30T02:19:12;100709.28;;;15.73;100.00
61524;BME280;47393;38.758;-9.164;2022-10-30T02:23:28;100705.81;;;15.72;100.00
61524;BME280;47393;38.758;-9.164;2022-10-30T02:25:29;100702.47;;;15.70;100.00
61524;BME280;47393;38.758;-9.164;2022-10-30T02:27:56;100692.59;;;15.63;100.00
61524;BME280;47393;38.758;-9.164;2022-10-30T02:30:10;100687.59;;;15.60;100.00
61524;BME280;47393;38.758;-9.164;2022-10-30T02:32:18;100686.94;;;15.57;100.00
61524;BME280;47393;38.758;-9.164;2022-10-30T02:34:19;100682.75;;;15.55;100.00
61524;BME280;47393;38.758;-9.164;2022-10-30T02:36:23;100692.84;;;15.69;100.00
61524;BME280;47393;38.758;-9.164;2022-10-30T02:38:34;100689.06;;;15.72;100.00
61524;BME280;47393;38.758;-9.164;2022-10-30T02:40:38;100690.50;;;15.66;100.00
61524;BME280;47393;38.758;-9.164;2022-10-30T02:42:42;100696.38;;;15.60;100.00
61524;BME280;47393;38.758;-9.164;2022-10-30T02:44:42;100705.50;;;15.57;100.00
61524;BME280;47393;38.758;-9.164;2022-10-30T02:46:43;100696.53;;;15.58;100.00
61524;BME280;47393;38.758;-9.164;2022-10-30T02:48:44;100697.09;;;15.62;100.00
61524;BME280;47393;38.758;-9.164;2022-10-30T02:50:47;100693.06;;;15.58;100.00
61524;BME280;47393;38.758;-9.164;2022-10-30T02:52:48;100686.78;;;15.59;100.00
61524;BME280;47393;38.758;-9.164;2022-10-30T02:54:55;100692.16;;;15.67;100.00
61524;BME280;47393;38.758;-9.164;2022-10-30T02:56:56;100692.84;;;15.69;100.00
61524;BME280;47393;38.758;-9.164;2022-10-30T02:58:57;100688.97;;;15.64;100.00
61524;BME280;47393;38.758;-9.164;2022-10-30T03:01:09;100688.22;;;15.53;100.00
61524;BME280;47393;38.758;-9.164;2022-10-30T03:03:10;100696.75;;;15.47;100.00
61524;BME280;47393;38.758;-9.164;2022-10-30T03:05:11;100699.69;;;15.44;100.00
61524;BME280;47393;38.758;-9.164;2022-10-30T03:07:15;100697.75;;;15.46;100.00
61524;BME280;47393;38.758;-9.164;2022-10-30T03:09:21;100701.06;;;15.48;100.00
61524;BME280;47393;38.758;-9.164;2022-10-30T03:11:26;100697.44;;;15.49;100.00
61524;BME280;47393;38.758;-9.164;2022-10-30T03:13:32;100700.25;;;15.48;100.00
61524;BME280;47393;38.758;-9.164;2022-10-30T03:15:33;100692.44;;;15.46;100.00
61524;BME280;47393;38.758;-9.164;2022-10-30T03:18:03;100692.59;;;15.45;100.00
61524;BME280;47393;38.758;-9.164;2022-10-30T03:20:04;100687.00;;;15.48;100.00
61524;BME280;47393;38.758;-9.164;2022-10-30T03:22:07;100684.09;;;15.41;100.00
61524;BME280;47393;38.758;-9.164;2022-10-30T03:24:14;100677.41;;;15.37;100.00
61524;BME280;47393;38.758;-9.164;2022-10-30T03:26:15;100677.97;;;15.40;100.00
61524;BME280;47393;38.758;-9.164;2022-10-30T03:28:26;100676.91;;;15.51;100.00
61524;BME280;47393;38.758;-9.164;2022-10-30T03:30:31;100675.63;;;15.55;100.00
61524;BME280;47393;38.758;-9.164;2022-10-30T03:32:35;100663.34;;;15.54;100.00
61524;BME280;47393;38.758;-9.164;2022-10-30T03:34:47;100665.41;;;15.61;100.00
61524;BME280;47393;38.758;-9.164;2022-10-30T03:36:48;100662.97;;;15.67;100.00
61524;BME280;47393;38.758;-9.164;2022-10-30T03:38:55;100648.00;;;15.76;100.00
61524;BME280;47393;38.758;-9.164;2022-10-30T03:41:19;100647.31;;;15.74;100.00
61524;BME280;47393;38.758;-9.164;2022-10-30T03:43:23;100648.44;;;15.71;100.00
61524;BME280;47393;38.758;-9.164;2022-10-30T03:45:33;100652.38;;;15.67;100.00
61524;BME280;47393;38.758;-9.164;2022-10-30T03:47:55;100657.66;;;15.67;100.00
61524;BME280;47393;38.758;-9.164;2022-10-30T03:50:14;100653.69;;;15.63;100.00
61524;BME280;47393;38.758;-9.164;2022-10-30T03:52:18;100653.81;;;15.62;100.00
61524;BME280;47393;38.758;-9.164;2022-10-30T03:54:21;100653.81;;;15.62;100.00
61524;BME280;47393;38.758;-9.164;2022-10-30T03:56:22;100659.81;;;15.64;100.00
61524;BME280;47393;38.758;-9.164;2022-10-30T03:58:46;100670.25;;;15.65;100.00
61524;BME280;47393;38.758;-9.164;2022-10-30T04:01:05;100650.56;;;15.68;100.00
61524;BME280;47393;38.758;-9.164;2022-10-30T04:03:09;100644.28;;;15.69;100.00
61524;BME280;47393;38.758;-9.164;2022-10-30T04:05:13;100651.56;;;15.67;100.00
61524;BME280;47393;38.758;-9.164;2022-10-30T04:07:38;100655.72;;;15.69;100.00
61524;BME280;47393;38.758;-9.164;2022-10-30T04:10:07;100651.94;;;15.72;100.00
61524;BME280;47393;38.758;-9.164;2022-10-30T04:12:36;100649.28;;;15.72;100.00
61524;BME280;47393;38.758;-9.164;2022-10-30T04:15:16;100644.13;;;15.70;100.00
61524;BME280;47393;38.758;-9.164;2022-10-30T04:18:23;100653.31;;;15.76;100.00
61524;BME280;47393;38.758;-9.164;2022-10-30T04:21:10;100661.19;;;15.68;100.00
61524;BME280;47393;38.758;-9.164;2022-10-30T04:23:17;100656.19;;;15.65;100.00
61524;BME280;47393;38.758;-9.164;2022-10-30T04:25:38;100659.97;;;15.62;100.00
61524;BME280;47393;38.758;-9.164;2022-10-30T04:27:53;100669.34;;;15.56;100.00
61524;BME280;47393;38.758;-9.164;2022-10-30T04:30:01;100667.31;;;15.50;100.00
61524;BME280;47393;38.758;-9.164;2022-10-30T04:32:02;100670.22;;;15.47;100.00
61524;BME280;47393;38.758;-9.164;2022-10-30T04:34:03;100662.59;;;15.44;100.00
61524;BME280;47393;38.758;-9.164;2022-10-30T04:36:07;100670.16;;;15.39;100.00
61524;BME280;47393;38.758;-9.164;2022-10-30T04:38:09;100663.19;;;15.38;100.00
61524;BME280;47393;38.758;-9.164;2022-10-30T04:40:16;100664.56;;;15.42;100.00
61524;BME280;47393;38.758;-9.164;2022-10-30T04:42:26;100672.88;;;15.47;100.00
61524;BME280;47393;38.758;-9.164;2022-10-30T04:44:35;100666.25;;;15.43;100.00
61524;BME280;47393;38.758;-9.164;2022-10-30T04:46:36;100671.28;;;15.36;100.00
61524;BME280;47393;38.758;-9.164;2022-10-30T04:48:44;100671.59;;;15.33;100.00
61524;BME280;47393;38.758;-9.164;2022-10-30T04:50:57;100673.69;;;15.30;100.00
61524;BME280;47393;38.758;-9.164;2022-10-30T04:53:06;100671.13;;;15.38;100.00
61524;BME280;47393;38.758;-9.164;2022-10-30T04:55:07;100669.88;;;15.42;100.00
61524;BME280;47393;38.758;-9.164;2022-10-30T04:57:09;100674.56;;;15.48;100.00
61524;BME280;47393;38.758;-9.164;2022-10-30T04:59:11;100673.03;;;15.46;100.00
61524;BME280;47393;38.758;-9.164;2022-10-30T05:01:11;100675.09;;;15.52;100.00
61524;BME280;47393;38.758;-9.164;2022-10-30T05:03:22;100666.94;;;15.63;100.00
61524;BME280;47393;38.758;-9.164;2022-10-30T05:05:23;100664.03;;;15.74;100.00
61524;BME280;47393;38.758;-9.164;2022-10-30T05:07:24;100667.25;;;15.78;100.00
61524;BME280;47393;38.758;-9.164;2022-10-30T05:09:36;100666.81;;;15.83;100.00
61524;BME280;47393;38.758;-9.164;2022-10-30T05:11:44;100668.69;;;15.72;100.00
61524;BME280;47393;38.758;-9.164;2022-10-30T05:14:02;100664.81;;;15.67;100.00
61524;BME280;47393;38.758;-9.164;2022-10-30T05:16:47;100670.09;;;15.67;100.00
61524;BME280;47393;38.758;-9.164;2022-10-30T05:19:11;100673.16;;;15.72;100.00
61524;BME280;47393;38.758;-9.164;2022-10-30T05:21:16;100672.16;;;15.73;100.00
61524;BME280;47393;38.758;-9.164;2022-10-30T05:23:26;100671.19;;;15.74;100.00
61524;BME280;47393;38.758;-9.164;2022-10-30T05:25:27;100673.59;;;15.67;100.00
61524;BME280;47393;38.758;-9.164;2022-10-30T05:27:30;100681.41;;;15.69;100.00
61524;BME280;47393;38.758;-9.164;2022-10-30T05:29:42;100679.44;;;15.71;100.00
61524;BME280;47393;38.758;-9.164;2022-10-30T05:31:43;100673.25;;;15.80;100.00
61524;BME280;47393;38.758;-9.164;2022-10-30T05:33:44;100678.97;;;15.75;100.00
61524;BME280;47393;38.758;-9.164;2022-10-30T05:35:45;100673.25;;;15.80;100.00
61524;BME280;47393;38.758;-9.164;2022-10-30T05:37:55;100675.91;;;15.80;100.00
61524;BME280;47393;38.758;-9.164;2022-10-30T05:39:56;100673.41;;;15.79;100.00
61524;BME280;47393;38.758;-9.164;2022-10-30T05:42:02;100665.81;;;15.84;100.00
61524;BME280;47393;38.758;-9.164;2022-10-30T05:44:13;100671.19;;;15.74;100.00
61524;BME280;47393;38.758;-9.164;2022-10-30T05:46:31;100667.69;;;15.73;100.00
61524;BME280;47393;38.758;-9.164;2022-10-30T05:49:04;100658.53;;;15.68;100.00
61524;BME280;47393;38.758;-9.164;2022-10-30T05:51:26;100666.13;;;15.81;100.00
61524;BME280;47393;38.758;-9.164;2022-10-30T05:53:34;100673.63;;;15.85;100.00
61524;BME280;47393;38.758;-9.164;2022-10-30T05:55:38;100673.78;;;15.84;100.00
61524;BME280;47393;38.758;-9.164;2022-10-30T05:57:44;100670.97;;;15.85;100.00
61524;BME280;47393;38.758;-9.164;2022-10-30T06:00:08;100677.34;;;15.93;100.00
61524;BME280;47393;38.758;-9.164;2022-10-30T06:02:18;100678.88;;;15.95;100.00
61524;BME280;47393;38.758;-9.164;2022-10-30T06:04:20;100685.00;;;15.96;100.00
61524;BME280;47393;38.758;-9.164;2022-10-30T06:06:21;100683.63;;;15.91;100.00
61524;BME280;47393;38.758;-9.164;2022-10-30T06:08:44;100686.66;;;15.97;100.00
61524;BME280;47393;38.758;-9.164;2022-10-30T06:17:29;100694.47;;;16.16;100.00
61524;BME280;47393;38.758;-9.164;2022-10-30T06:19:53;100691.97;;;16.15;100.00
61524;BME280;47393;38.758;-9.164;2022-10-30T06:22:15;100692.81;;;16.15;100.00
61524;BME280;47393;38.758;-9.164;2022-10-30T06:24:56;100698.34;;;16.04;100.00
61524;BME280;47393;38.758;-9.164;2022-10-30T06:27:30;100692.94;;;15.96;100.00
61524;BME280;47393;38.758;-9.164;2022-10-30T06:29:33;100691.16;;;15.96;100.00
61524;BME280;47393;38.758;-9.164;2022-10-30T06:31:34;100692.75;;;15.89;100.00
61524;BME280;47393;38.758;-9.164;2022-10-30T06:33:55;100698.31;;;15.86;100.00
61524;BME280;47393;38.758;-9.164;2022-10-30T06:35:56;100700.63;;;15.81;100.00
61524;BME280;47393;38.758;-9.164;2022-10-30T06:37:57;100702.03;;;15.75;100.00
61524;BME280;47393;38.758;-9.164;2022-10-30T06:40:01;100702.16;;;15.73;100.00
61524;BME280;47393;38.758;-9.164;2022-10-30T06:42:23;100702.75;;;15.67;100.00
61524;BME280;47393;38.758;-9.164;2022-10-30T06:44:39;100704.88;;;15.64;100.00
61524;BME280;47393;38.758;-9.164;2022-10-30T06:46:43;100698.16;;;15.69;100.00
61524;BME280;47393;38.758;-9.164;2022-10-30T06:48:56;100709.22;;;15.65;100.00
61524;BME280;47393;38.758;-9.164;2022-10-30T06:51:08;100702.91;;;15.66;100.00
61524;BME280;47393;38.758;-9.164;2022-10-30T06:53:18;100704.44;;;15.68;100.00
61524;BME280;47393;38.758;-9.164;2022-10-30T06:55:31;100698.25;;;15.78;100.00
61524;BME280;47393;38.758;-9.164;2022-10-30T06:58:05;100701.88;;;15.77;100.00
61524;BME280;47393;38.758;-9.164;2022-10-30T07:00:32;100695.97;;;15.65;100.00
61524;BME280;47393;38.758;-9.164;2022-10-30T07:03:09;100697.59;;;15.48;100.00
61524;BME280;47393;38.758;-9.164;2022-10-30T07:05:19;100700.00;;;15.41;100.00
61524;BME280;47393;38.758;-9.164;2022-10-30T07:07:20;100704.78;;;15.37;100.00
61524;BME280;47393;38.758;-9.164;2022-10-30T07:09:44;100707.91;;;15.23;100.00
61524;BME280;47393;38.758;-9.164;2022-10-30T07:12:23;100704.31;;;15.14;100.00
61524;BME280;47393;38.758;-9.164;2022-10-30T07:14:50;100709.03;;;15.20;100.00
61524;BME280;47393;38.758;-9.164;2022-10-30T07:19:57;100711.53;;;15.22;100.00
61524;BME280;47393;38.758;-9.164;2022-10-30T07:21:59;100714.38;;;15.11;100.00
61524;BME280;47393;38.758;-9.164;2022-10-30T07:24:06;100722.66;;;15.26;100.00
61524;BME280;47393;38.758;-9.164;2022-10-30T07:26:28;100722.66;;;15.26;100.00
61524;BME280;47393;38.758;-9.164;2022-10-30T07:28:32;100726.03;;;15.28;100.00
61524;BME280;47393;38.758;-9.164;2022-10-30T07:31:00;100711.53;;;15.22;100.00
61524;BME280;47393;38.758;-9.164;2022-10-30T07:33:36;100722.97;;;15.50;100.00
61524;BME280;47393;38.758;-9.164;2022-10-30T07:35:55;100727.78;;;15.65;100.00
61524;BME280;47393;38.758;-9.164;2022-10-30T07:38:18;100726.00;;;15.83;100.00
61524;BME280;47393;38.758;-9.164;2022-10-30T07:40:31;100741.69;;;15.95;100.00
61524;BME280;47393;38.758;-9.164;2022-10-30T07:42:40;100738.81;;;16.06;100.00
61524;BME280;47393;38.758;-9.164;2022-10-30T07:45:06;100743.50;;;15.94;100.00
61524;BME280;47393;38.758;-9.164;2022-10-30T07:47:17;100746.41;;;16.01;100.00
61524;BME280;47393;38.758;-9.164;2022-10-30T07:49:23;100753.44;;;16.10;100.00
61524;BME280;47393;38.758;-9.164;2022-10-30T07:51:29;100751.50;;;16.12;100.00
61524;BME280;47393;38.758;-9.164;2022-10-30T07:53:33;100752.91;;;16.24;100.00
61524;BME280;47393;38.758;-9.164;2022-10-30T07:55:38;100765.22;;;16.70;100.00
61524;BME280;47393;38.758;-9.164;2022-10-30T07:58:07;100761.53;;;17.50;100.00
61524;BME280;47393;38.758;-9.164;2022-10-30T08:00:47;100766.03;;;18.25;100.00
61524;BME280;47393;38.758;-9.164;2022-10-30T08:03:04;100770.19;;;18.93;100.00
61524;BME280;47393;38.758;-9.164;2022-10-30T08:05:25;100772.44;;;19.21;100.00
61524;BME280;47393;38.758;-9.164;2022-10-30T08:07:37;100776.66;;;19.07;100.00
61524;BME280;47393;38.758;-9.164;2022-10-30T08:09:38;100779.19;;;19.00;100.00
61524;BME280;47393;38.758;-9.164;2022-10-30T08:11:39;100774.84;;;18.91;100.00
61524;BME280;47393;38.758;-9.164;2022-10-30T08:13:39;100780.88;;;18.60;100.00
61524;BME280;47393;38.758;-9.164;2022-10-30T08:15:43;100782.84;;;18.99;100.00
61524;BME280;47393;38.758;-9.164;2022-10-30T08:17:44;100787.19;;;19.00;100.00
61524;BME280;47393;38.758;-9.164;2022-10-30T08:19:56;100790.41;;;19.75;100.00
61524;BME280;47393;38.758;-9.164;2022-10-30T08:21:57;100801.00;;;20.84;98.33
61524;BME280;47393;38.758;-9.164;2022-10-30T08:23:58;100800.47;;;22.15;89.49
61524;BME280;47393;38.758;-9.164;2022-10-30T08:26:02;100799.38;;;22.53;81.89
61524;BME280;47393;38.758;-9.164;2022-10-30T08:28:05;100802.31;;;22.36;81.75
61524;BME280;47393;38.758;-9.164;2022-10-30T08:30:10;100810.81;;;22.40;82.08
61524;BME280;47393;38.758;-9.164;2022-10-30T08:32:14;100801.22;;;23.37;78.72
61524;BME280;47393;38.758;-9.164;2022-10-30T08:34:53;100818.09;;;24.55;73.64
61524;BME280;47393;38.758;-9.164;2022-10-30T08:36:57;100820.25;;;25.51;70.37
61524;BME280;47393;38.758;-9.164;2022-10-30T08:38:58;100825.44;;;26.37;64.15
61524;BME280;47393;38.758;-9.164;2022-10-30T08:41:15;100828.59;;;26.27;62.22
61524;BME280;47393;38.758;-9.164;2022-10-30T08:43:24;100835.53;;;25.64;62.77
61524;BME280;47393;38.758;-9.164;2022-10-30T08:45:28;100840.06;;;24.92;64.49
61524;BME280;47393;38.758;-9.164;2022-10-30T08:47:57;100831.63;;;25.60;62.68
61524;BME280;47393;38.758;-9.164;2022-10-30T08:50:22;100843.22;;;25.61;63.14
61524;BME280;47393;38.758;-9.164;2022-10-30T08:52:26;100842.31;;;24.61;64.97
61524;BME280;47393;38.758;-9.164;2022-10-30T08:54:32;100838.91;;;23.22;71.03
61524;BME280;47393;38.758;-9.164;2022-10-30T08:56:36;100835.50;;;22.85;73.28
61524;BME280;47393;38.758;-9.164;2022-10-30T08:58:46;100831.31;;;22.11;77.09
61524;BME280;47393;38.758;-9.164;2022-10-30T09:00:48;100832.63;;;22.00;77.85
61524;BME280;47393;38.758;-9.164;2022-10-30T09:02:55;100823.66;;;21.26;81.18
61524;BME280;47393;38.758;-9.164;2022-10-30T09:05:22;100826.16;;;20.52;85.48
61524;BME280;47393;38.758;-9.164;2022-10-30T09:07:43;100830.22;;;19.93;88.94
61524;BME280;47393;38.758;-9.164;2022-10-30T09:10:31;100840.75;;;19.86;89.08
61524;BME280;47393;38.758;-9.164;2022-10-30T09:12:33;100842.44;;;19.31;91.73
61524;BME280;47393;38.758;-9.164;2022-10-30T09:14:41;100844.22;;;19.47;90.76
61524;BME280;47393;38.758;-9.164;2022-10-30T09:16:47;100838.28;;;19.68;90.62
61524;BME280;47393;38.758;-9.164;2022-10-30T09:18:49;100842.44;;;19.87;88.20
61524;BME280;47393;38.758;-9.164;2022-10-30T09:20:53;100845.94;;;19.80;89.78
61524;BME280;47393;38.758;-9.164;2022-10-30T09:23:03;100845.13;;;19.15;93.21
61524;BME280;47393;38.758;-9.164;2022-10-30T09:25:04;100849.66;;;18.90;92.50
61524;BME280;47393;38.758;-9.164;2022-10-30T09:27:25;100847.47;;;18.60;94.61
61524;BME280;47393;38.758;-9.164;2022-10-30T09:29:29;100846.16;;;18.89;95.98
61524;BME280;47393;38.758;-9.164;2022-10-30T09:31:54;100850.97;;;19.02;94.94
61524;BME280;47393;38.758;-9.164;2022-10-30T09:34:03;100848.16;;;18.95;93.22
61524;BME280;47393;38.758;-9.164;2022-10-30T09:36:19;100840.50;;;20.04;90.09
61524;BME280;47393;38.758;-9.164;2022-10-30T09:38:26;100851.69;;;21.16;81.79
61524;BME280;47393;38.758;-9.164;2022-10-30T09:40:32;100856.88;;;21.32;80.68
61524;BME280;47393;38.758;-9.164;2022-10-30T09:42:46;100846.81;;;21.34;81.54
61524;BME280;47393;38.758;-9.164;2022-10-30T09:49:29;100842.59;;;21.02;81.87
61524;BME280;47393;38.758;-9.164;2022-10-30T09:59:13;100854.69;;;23.39;70.25
61524;BME280;47393;38.758;-9.164;2022-10-30T10:04:18;100852.03;;;23.45;70.90
61524;BME280;47393;38.758;-9.164;2022-10-30T10:06:26;100847.38;;;22.48;73.21
61524;BME280;47393;38.758;-9.164;2022-10-30T10:12:24;100855.19;;;21.31;76.19
61524;BME280;47393;38.758;-9.164;2022-10-30T10:14:28;100849.97;;;21.53;75.88
61524;BME280;47393;38.758;-9.164;2022-10-30T10:16:58;100849.72;;;22.57;74.95
61524;BME280;47393;38.758;-9.164;2022-10-30T10:19:08;100847.22;;;22.77;70.21
61524;BME280;47393;38.758;-9.164;2022-10-30T10:21:17;100856.13;;;22.20;72.06
61524;BME280;47393;38.758;-9.164;2022-10-30T10:25:24;100858.53;;;21.63;73.10
61524;BME280;47393;38.758;-9.164;2022-10-30T10:30:00;100851.91;;;23.19;68.22
61524;BME280;47393;38.758;-9.164;2022-10-30T10:33:24;100856.97;;;23.42;67.81
61524;BME280;47393;38.758;-9.164;2022-10-30T10:38:08;100844.72;;;23.26;70.05
61524;BME280;47393;38.758;-9.164;2022-10-30T10:40:23;100864.16;;;23.35;69.87
61524;BME280;47393;38.758;-9.164;2022-10-30T10:50:11;100869.25;;;22.73;69.33
61524;BME280;47393;38.758;-9.164;2022-10-30T10:52:20;100865.13;;;22.49;70.38
61524;BME280;47393;38.758;-9.164;2022-10-30T10:54:56;100860.59;;;22.99;67.65
61524;BME280;47393;38.758;-9.164;2022-10-30T10:57:07;100868.84;;;22.97;68.59
61524;BME280;47393;38.758;-9.164;2022-10-30T10:59:26;100870.28;;;23.22;67.42
61524;BME280;47393;38.758;-9.164;2022-10-30T11:01:39;100858.16;;;23.04;66.18
61524;BME280;47393;38.758;-9.164;2022-10-30T11:12:40;100866.47;;;22.23;72.55
61524;BME280;47393;38.758;-9.164;2022-10-30T11:14:41;100866.94;;;21.75;72.96
61524;BME280;47393;38.758;-9.164;2022-10-30T11:18:43;100863.31;;;21.83;72.17
61524;BME280;47393;38.758;-9.164;2022-10-30T11:24:03;100860.25;;;22.59;71.51
61524;BME280;47393;38.758;-9.164;2022-10-30T11:38:11;100846.72;;;23.52;68.61
61524;BME280;47393;38.758;-9.164;2022-10-30T11:44:11;100842.88;;;23.05;69.06
61524;BME280;47393;38.758;-9.164;2022-10-30T11:46:27;100841.38;;;23.59;67.75
61524;BME280;47393;38.758;-9.164;2022-10-30T11:52:02;100843.41;;;23.98;58.87
61524;BME280;47393;38.758;-9.164;2022-10-30T11:56:32;100832.56;;;24.47;60.24
61524;BME280;47393;38.758;-9.164;2022-10-30T11:59:06;100834.59;;;24.25;61.72
61524;BME280;47393;38.758;-9.164;2022-10-30T12:01:15;100820.41;;;23.82;61.78
61524;BME280;47393;38.758;-9.164;2022-10-30T12:13:10;100819.44;;;25.44;57.47
61524;BME280;47393;38.758;-9.164;2022-10-30T12:15:49;100821.25;;;25.64;53.45
61524;BME280;47393;38.758;-9.164;2022-10-30T12:17:59;100818.22;;;25.40;52.32
61524;BME280;47393;38.758;-9.164;2022-10-30T12:20:04;100813.09;;;24.51;56.01
61524;BME280;47393;38.758;-9.164;2022-10-30T12:22:08;100813.94;;;24.32;54.29
61524;BME280;47393;38.758;-9.164;2022-10-30T12:24:19;100803.22;;;23.70;56.03
61524;BME280;47393;38.758;-9.164;2022-10-30T12:26:21;100797.03;;;23.28;58.70
61524;BME280;47393;38.758;-9.164;2022-10-30T12:28:29;100803.31;;;23.42;59.04
61524;BME280;47393;38.758;-9.164;2022-10-30T12:30:48;100788.25;;;23.96;58.12
61524;BME280;47393;38.758;-9.164;2022-10-30T12:33:03;100797.78;;;24.12;58.64
61524;BME280;47393;38.758;-9.164;2022-10-30T12:35:33;100787.66;;;24.21;56.83
61524;BME280;47393;38.758;-9.164;2022-10-30T12:38:12;100780.63;;;24.19;56.67
61524;BME280;47393;38.758;-9.164;2022-10-30T12:43:47;100768.31;;;23.77;58.85
61524;BME280;47393;38.758;-9.164;2022-10-30T12:48:48;100759.50;;;23.35;58.86
61524;BME280;47393;38.758;-9.164;2022-10-30T12:53:38;100753.19;;;23.62;58.43
61524;BME280;47393;38.758;-9.164;2022-10-30T12:55:53;100744.44;;;23.05;58.66
61524;BME280;47393;38.758;-9.164;2022-10-30T13:00:47;100734.03;;;23.85;57.87
61524;BME280;47393;38.758;-9.164;2022-10-30T13:03:23;100729.91;;;23.76;57.88
61524;BME280;47393;38.758;-9.164;2022-10-30T13:05:53;100730.69;;;23.63;56.09
61524;BME280;47393;38.758;-9.164;2022-10-30T13:12:25;100712.63;;;22.60;61.46
61524;BME280;47393;38.758;-9.164;2022-10-30T13:14:41;100712.78;;;22.52;61.93
61524;BME280;47393;38.758;-9.164;2022-10-30T13:16:44;100715.16;;;22.19;62.17
61524;BME280;47393;38.758;-9.164;2022-10-30T13:18:45;100720.41;;;21.62;63.38
61524;BME280;47393;38.758;-9.164;2022-10-30T13:23:09;100711.59;;;22.33;61.92
61524;BME280;47393;38.758;-9.164;2022-10-30T13:25:13;100713.22;;;22.91;61.36
61524;BME280;47393;38.758;-9.164;2022-10-30T13:27:20;100711.69;;;21.75;60.03
61524;BME280;47393;38.758;-9.164;2022-10-30T13:29:33;100708.22;;;22.24;60.02
61524;BME280;47393;38.758;-9.164;2022-10-30T13:31:43;100705.13;;;22.27;60.04
61524;BME280;47393;38.758;-9.164;2022-10-30T13:51:56;100681.53;;;22.66;55.49